Time;durP1;ratioP1;P1;durP2;ratioP2;P2;SDS_P1;SDS_P2;PMS_P1;PMS_P2;Temp;Humidity;BMP_temperature;BMP_pressure;BME280_temperature;BME280_humidity;BME280_pressure;Samples;Min_cycle;Max_cycle;Signal;HPM_P1;HPM_P2
2022/08/15 00:00:23;;;;;;;;;;;;;;;27.49;35.65;100111.28;7290686;19;152714;-62
2022/08/15 00:02:52;;;;;;;;;;;;;;;27.45;35.52;100108.34;7286049;19;153356;-62
2022/08/15 00:05:29;;;;;;;;;;;;;;;27.42;35.77;100106.28;7279961;19;152370;-62
2022/08/15 00:08:07;;;;;;;;;;;;;;;27.43;36.56;100100.25;7284071;19;152491;-62
2022/08/15 00:11:05;;;;;;;;;;;;;;;27.45;36.22;100088.50;7283970;19;154227;-62
2022/08/15 00:13:49;;;;;;;;;;;;;;;27.43;36.40;100099.41;7255122;19;154587;-62
2022/08/15 00:16:27;;;;;;;;;;;;;;;27.46;36.47;100095.00;7285073;19;152018;-62
2022/08/15 00:18:58;;;;;;;;;;;;;;;27.43;36.94;100088.88;7283162;19;152642;-62
2022/08/15 00:21:25;;;;;;;;;;;;;;;27.44;36.27;100092.53;7290203;19;153318;-62
2022/08/15 00:23:55;;;;;;;;;;;;;;;27.40;36.32;100083.13;7281516;19;155538;-62
2022/08/15 00:26:34;;;;;;;;;;;;;;;27.43;36.50;100088.06;7281624;19;153486;-62
2022/08/15 00:29:22;;;;;;;;;;;;;;;27.39;36.46;100087.19;7279167;19;152396;-62
2022/08/15 00:32:07;;;;;;;;;;;;;;;27.43;36.60;100082.38;7283709;19;154951;-62
2022/08/15 00:34:54;;;;;;;;;;;;;;;27.41;36.64;100091.28;7279102;19;154841;-62
2022/08/15 00:37:20;;;;;;;;;;;;;;;27.44;36.55;100089.69;7282387;19;154463;-62
2022/08/15 00:39:48;;;;;;;;;;;;;;;27.42;36.08;100092.09;7281214;19;153293;-62
2022/08/15 00:42:25;;;;;;;;;;;;;;;27.44;36.48;100084.84;7280329;19;154141;-62
2022/08/15 00:44:57;;;;;;;;;;;;;;;27.40;36.39;100083.13;7290331;19;153032;-62
2022/08/15 00:47:42;;;;;;;;;;;;;;;27.38;36.59;100083.53;7281326;19;153556;-62
2022/08/15 00:50:17;;;;;;;;;;;;;;;27.37;36.51;100081.88;7277615;19;152508;-62
2022/08/15 00:53:06;;;;;;;;;;;;;;;27.44;36.22;100081.16;7282176;19;153117;-62
2022/08/15 00:55:36;;;;;;;;;;;;;;;27.37;36.59;100084.72;7281376;19;154355;-62
2022/08/15 00:58:05;;;;;;;;;;;;;;;27.36;36.51;100079.41;7283518;19;152349;-62
2022/08/15 01:00:55;;;;;;;;;;;;;;;27.33;36.52;100080.16;7282572;19;153891;-62
2022/08/15 01:03:24;;;;;;;;;;;;;;;27.37;36.85;100084.72;7278503;19;154094;-62
2022/08/15 01:05:53;;;;;;;;;;;;;;;27.37;36.66;100083.88;7274912;19;153121;-62
2022/08/15 01:08:23;;;;;;;;;;;;;;;27.36;36.66;100076.56;7289522;19;152806;-62
2022/08/15 01:11:04;;;;;;;;;;;;;;;27.36;36.50;100068.88;7278716;19;152364;-62
2022/08/15 01:13:34;;;;;;;;;;;;;;;27.38;36.46;100065.66;7279860;19;153458;-62
2022/08/15 01:16:23;;;;;;;;;;;;;;;27.34;36.69;100059.94;7283517;19;154871;-62
2022/08/15 01:19:06;;;;;;;;;;;;;;;27.33;36.69;100061.13;7282760;19;152555;-62
2022/08/15 01:22:01;;;;;;;;;;;;;;;27.31;36.63;100052.16;7284761;19;153684;-62
2022/08/15 01:24:33;;;;;;;;;;;;;;;27.33;36.52;100061.13;7279427;19;154063;-62
2022/08/15 01:27:22;;;;;;;;;;;;;;;27.33;36.50;100068.81;7282364;19;152765;-62
2022/08/15 01:29:52;;;;;;;;;;;;;;;27.28;36.51;100061.44;7281646;19;152966;-62
2022/08/15 01:32:19;;;;;;;;;;;;;;;27.28;36.58;100055.75;7288882;19;154009;-62
2022/08/15 01:34:46;;;;;;;;;;;;;;;27.26;36.66;100045.97;7280007;19;153315;-62
2022/08/15 01:37:13;;;;;;;;;;;;;;;27.28;36.77;100052.09;7281562;19;154028;-62
2022/08/15 01:39:50;;;;;;;;;;;;;;;27.27;36.91;100039.94;7283180;19;152048;-62
2022/08/15 01:42:31;;;;;;;;;;;;;;;27.30;36.82;100044.03;7281329;19;152818;-62
2022/08/15 01:45:11;;;;;;;;;;;;;;;27.29;36.71;100045.25;7281628;19;153594;-62
2022/08/15 01:47:42;;;;;;;;;;;;;;;27.29;36.67;100043.22;7284176;19;152775;-62
2022/08/15 01:50:16;;;;;;;;;;;;;;;27.29;36.73;100046.06;7283446;19;152684;-62
2022/08/15 01:53:15;;;;;;;;;;;;;;;27.28;36.77;100047.25;7287874;19;154023;-62
2022/08/15 01:55:45;;;;;;;;;;;;;;;27.30;37.00;100041.22;7295143;19;153294;-62
2022/08/15 01:58:21;;;;;;;;;;;;;;;27.28;37.05;100041.56;7288832;19;153523;-62
2022/08/15 02:00:52;;;;;;;;;;;;;;;27.27;36.52;100039.09;7287482;19;152101;-62
2022/08/15 02:03:20;;;;;;;;;;;;;;;27.27;36.64;100033.44;7287756;19;153468;-62
2022/08/15 02:05:47;;;;;;;;;;;;;;;27.28;36.62;100029.41;7284660;19;154461;-62
2022/08/15 02:08:23;;;;;;;;;;;;;;;27.29;36.85;100031.06;7287563;19;153102;-62
2022/08/15 02:11:03;;;;;;;;;;;;;;;27.29;36.69;100031.06;7286091;19;153570;-62
2022/08/15 02:13:43;;;;;;;;;;;;;;;27.28;36.71;100020.91;7286851;19;153327;-62
2022/08/15 02:16:13;;;;;;;;;;;;;;;27.27;37.02;100019.25;7287893;19;152241;-62
2022/08/15 02:18:46;;;;;;;;;;;;;;;27.26;36.59;100020.44;7291339;19;152931;-62
2022/08/15 02:21:17;;;;;;;;;;;;;;;27.26;36.96;100014.75;7287626;19;154983;-62
2022/08/15 02:23:44;;;;;;;;;;;;;;;27.26;36.80;100014.75;7285854;19;153380;-62
2022/08/15 02:26:11;;;;;;;;;;;;;;;27.26;36.86;100024.09;7287182;19;153627;-62
2022/08/15 02:28:51;;;;;;;;;;;;;;;27.27;36.85;100022.91;7287266;19;154189;-62
2022/08/15 02:31:21;;;;;;;;;;;;;;;27.29;36.78;100011.19;7286453;19;153363;-62
2022/08/15 02:33:50;;;;;;;;;;;;;;;27.26;37.13;100009.91;7284962;19;154011;-62
2022/08/15 02:36:20;;;;;;;;;;;;;;;27.24;36.00;100006.66;7286738;19;152636;-62
2022/08/15 02:38:58;;;;;;;;;;;;;;;27.23;36.72;100007.03;7293950;19;151814;-62
2022/08/15 02:41:31;;;;;;;;;;;;;;;27.20;36.74;100005.78;7288382;19;152273;-62
2022/08/15 02:44:10;;;;;;;;;;;;;;;27.26;36.28;100000.56;7287399;19;153740;-62
2022/08/15 02:46:44;;;;;;;;;;;;;;;27.23;36.38;99999.34;7283839;19;153873;-62
2022/08/15 02:49:29;;;;;;;;;;;;;;;27.26;36.38;99992.91;7285437;19;152896;-62
2022/08/15 02:52:13;;;;;;;;;;;;;;;27.25;36.16;99990.47;7287035;19;152918;-62
2022/08/15 02:54:47;;;;;;;;;;;;;;;27.26;36.51;99992.06;7286914;19;152653;-62
2022/08/15 02:57:26;;;;;;;;;;;;;;;27.23;36.51;99987.16;7287908;19;153301;-62
2022/08/15 02:59:53;;;;;;;;;;;;;;;27.24;36.36;99995.31;7287289;19;153532;-62
2022/08/15 03:02:19;;;;;;;;;;;;;;;27.22;36.25;99989.19;7294733;19;153030;-62
2022/08/15 03:04:57;;;;;;;;;;;;;;;27.21;36.45;99995.25;7281180;19;152804;-62
2022/08/15 03:07:27;;;;;;;;;;;;;;;27.21;36.48;99984.69;7282114;19;153074;-62
2022/08/15 03:09:54;;;;;;;;;;;;;;;27.21;36.82;99983.91;7285854;19;151807;-62
2022/08/15 03:12:25;;;;;;;;;;;;;;;27.21;36.73;99987.53;7264007;19;151920;-62
2022/08/15 03:14:58;;;;;;;;;;;;;;;27.20;36.68;99976.59;7284878;19;153725;-62
2022/08/15 03:17:28;;;;;;;;;;;;;;;27.19;36.52;99989.94;7286175;19;153698;-62
2022/08/15 03:19:59;;;;;;;;;;;;;;;27.15;36.50;99976.88;7283032;19;152963;-62
2022/08/15 03:22:38;;;;;;;;;;;;;;;27.17;36.46;99980.97;7285550;19;153704;-62
2022/08/15 03:25:12;;;;;;;;;;;;;;;27.17;36.25;99977.31;7291833;19;152656;-62
2022/08/15 03:27:40;;;;;;;;;;;;;;;27.18;36.90;99976.13;7286763;19;155040;-62
2022/08/15 03:30:09;;;;;;;;;;;;;;;27.17;36.49;99972.47;7286120;19;152868;-62
2022/08/15 03:32:53;;;;;;;;;;;;;;;27.16;36.57;99970.03;7286874;19;152471;-62
2022/08/15 03:35:22;;;;;;;;;;;;;;;27.13;36.29;99971.59;7281803;19;154378;-61
2022/08/15 03:37:54;;;;;;;;;;;;;;;27.11;36.98;99968.31;7286193;19;152441;-62
2022/08/15 03:40:31;;;;;;;;;;;;;;;27.10;36.76;99963.84;7283314;19;153370;-62
2022/08/15 03:43:04;;;;;;;;;;;;;;;27.10;36.86;99961.00;7284868;19;154143;-62
2022/08/15 03:45:42;;;;;;;;;;;;;;;27.11;37.06;99954.16;7285384;19;152283;-62
2022/08/15 03:48:10;;;;;;;;;;;;;;;27.09;36.68;99955.69;7292447;19;152893;-62
2022/08/15 03:50:50;;;;;;;;;;;;;;;27.10;37.07;99954.50;7279934;19;152031;-62
2022/08/15 03:53:26;;;;;;;;;;;;;;;27.11;37.12;99956.97;7284531;19;152599;-62
2022/08/15 03:55:55;;;;;;;;;;;;;;;27.12;36.95;99952.13;7283206;19;154795;-62
2022/08/15 03:58:25;;;;;;;;;;;;;;;27.11;37.12;99956.16;7285718;19;152305;-62
2022/08/15 04:01:01;;;;;;;;;;;;;;;27.13;37.18;99951.72;7283773;19;152368;-62
2022/08/15 04:03:29;;;;;;;;;;;;;;;27.11;36.66;99948.47;7283346;19;154156;-62
2022/08/15 04:06:00;;;;;;;;;;;;;;;27.13;36.71;99948.06;7280446;19;152758;-62
2022/08/15 04:08:33;;;;;;;;;;;;;;;27.12;37.09;99946.47;7284438;19;153872;-62
2022/08/15 04:11:22;;;;;;;;;;;;;;;27.07;36.78;99941.91;7287829;19;155103;-62
2022/08/15 04:14:02;;;;;;;;;;;;;;;27.13;36.90;99942.41;7281753;19;153144;-62
2022/08/15 04:16:29;;;;;;;;;;;;;;;27.11;36.91;99944.81;7284078;19;154224;-62
2022/08/15 04:19:19;;;;;;;;;;;;;;;27.12;36.51;99940.78;7281099;19;153418;-62
2022/08/15 04:21:45;;;;;;;;;;;;;;;27.09;36.80;99933.00;7285133;19;153078;-62
2022/08/15 04:24:16;;;;;;;;;;;;;;;27.08;37.08;99942.72;7282516;19;153725;-62
2022/08/15 04:26:55;;;;;;;;;;;;;;;27.05;36.81;99946.31;7284717;19;151961;-62
2022/08/15 04:29:26;;;;;;;;;;;;;;;27.07;36.88;99941.91;7283063;19;153174;-62
2022/08/15 04:31:54;;;;;;;;;;;;;;;27.05;36.66;99940.66;7282105;19;153786;-62
2022/08/15 04:34:21;;;;;;;;;;;;;;;27.02;37.13;99941.41;7288772;19;153011;-62
2022/08/15 04:37:09;;;;;;;;;;;;;;;27.09;36.88;99944.34;7283285;19;156044;-62
2022/08/15 04:39:38;;;;;;;;;;;;;;;27.04;36.90;99941.84;7282898;19;151952;-62
2022/08/15 04:42:06;;;;;;;;;;;;;;;27.02;36.76;99941.41;7282444;19;152874;-62
2022/08/15 04:44:39;;;;;;;;;;;;;;;27.04;36.85;99933.31;7281902;19;152794;-62
2022/08/15 04:47:09;;;;;;;;;;;;;;;27.02;36.61;99945.06;7282913;19;153147;-62
2022/08/15 04:49:37;;;;;;;;;;;;;;;26.97;37.31;99936.88;7280583;19;152983;-62
2022/08/15 04:52:08;;;;;;;;;;;;;;;26.97;37.13;99934.84;7280355;19;154070;-62
2022/08/15 04:54:35;;;;;;;;;;;;;;;26.97;37.13;99940.53;7290590;19;152395;-62
2022/08/15 04:57:03;;;;;;;;;;;;;;;26.95;37.23;99942.91;7282921;19;154792;-62
2022/08/15 04:59:31;;;;;;;;;;;;;;;26.97;37.26;99943.34;7283881;19;152027;-62
2022/08/15 05:02:05;;;;;;;;;;;;;;;26.95;37.38;99947.75;7284651;19;152086;-62
2022/08/15 05:04:53;;;;;;;;;;;;;;;26.96;37.33;99940.91;7276938;19;156821;-62
2022/08/15 05:07:21;;;;;;;;;;;;;;;26.92;37.36;99943.66;7284041;19;152085;-62
2022/08/15 05:09:53;;;;;;;;;;;;;;;26.92;37.18;99943.66;7285429;19;153487;-62
2022/08/15 05:12:29;;;;;;;;;;;;;;;26.92;37.26;99949.34;7279779;19;153958;-62
2022/08/15 05:14:59;;;;;;;;;;;;;;;26.90;37.51;99951.72;7283823;19;151892;-62
2022/08/15 05:17:27;;;;;;;;;;;;;;;26.93;37.29;99939.66;7289845;19;153037;-62
2022/08/15 05:20:18;;;;;;;;;;;;;;;26.91;37.28;99944.84;7279875;19;151926;-62
2022/08/15 05:22:55;;;;;;;;;;;;;;;26.89;37.36;99938.72;7281223;19;152173;-62
2022/08/15 05:25:26;;;;;;;;;;;;;;;26.91;37.12;99944.84;7282509;19;153699;-62
2022/08/15 05:27:52;;;;;;;;;;;;;;;26.91;37.23;99946.88;7284937;19;154690;-62
2022/08/15 05:30:20;;;;;;;;;;;;;;;26.86;37.57;99948.00;7283108;19;152933;-62
2022/08/15 05:32:47;;;;;;;;;;;;;;;26.93;37.01;99953.81;7282366;19;153475;-62
2022/08/15 05:35:15;;;;;;;;;;;;;;;26.84;37.50;99953.22;7279879;19;152052;-62
2022/08/15 05:37:44;;;;;;;;;;;;;;;26.82;37.64;99958.41;7285478;19;152680;-62
2022/08/15 05:40:11;;;;;;;;;;;;;;;26.84;37.74;99950.38;7289890;19;153281;-62
2022/08/15 05:42:58;;;;;;;;;;;;;;;26.79;37.66;99947.84;7284203;19;154539;-62
2022/08/15 05:45:32;;;;;;;;;;;;;;;26.79;37.43;99947.84;7281621;19;153773;-62
2022/08/15 05:48:16;;;;;;;;;;;;;;;26.96;37.59;99950.22;7283366;19;151885;-62
2022/08/15 05:50:54;;;;;;;;;;;;;;;26.83;37.63;99956.41;7280057;19;152982;-62
2022/08/15 05:53:44;;;;;;;;;;;;;;;26.78;37.90;99949.03;7281854;19;153164;-62
2022/08/15 05:56:30;;;;;;;;;;;;;;;26.69;38.34;99953.28;7282573;19;153086;-62
2022/08/15 05:59:11;;;;;;;;;;;;;;;26.68;38.29;99962.97;7281947;19;152971;-62
2022/08/15 06:01:49;;;;;;;;;;;;;;;26.70;38.65;99961.44;7281717;19;153418;-62
2022/08/15 06:04:42;;;;;;;;;;;;;;;26.69;38.54;99964.63;7285217;19;151969;-62
2022/08/15 06:07:13;;;;;;;;;;;;;;;26.70;39.02;99961.44;7280020;19;153051;-62
2022/08/15 06:09:43;;;;;;;;;;;;;;;26.68;39.22;99960.97;7280628;19;152236;-62
2022/08/15 06:12:17;;;;;;;;;;;;;;;26.69;39.53;99961.78;7280938;19;152776;-62
2022/08/15 06:14:53;;;;;;;;;;;;;;;26.67;39.16;99962.16;7278091;19;152576;-62
2022/08/15 06:17:25;;;;;;;;;;;;;;;26.69;39.70;99956.13;7282161;19;152245;-62
2022/08/15 06:19:56;;;;;;;;;;;;;;;26.66;39.68;99954.88;7278173;19;152355;-62
2022/08/15 06:22:24;;;;;;;;;;;;;;;26.66;40.00;99957.72;7260144;19;153669;-62
2022/08/15 06:25:05;;;;;;;;;;;;;;;26.63;40.28;99957.63;7267629;19;152574;-62
2022/08/15 06:27:35;;;;;;;;;;;;;;;26.65;40.79;99961.72;7284915;19;153791;-62
2022/08/15 06:30:21;;;;;;;;;;;;;;;26.69;40.89;99956.94;7280410;19;152204;-62
2022/08/15 06:32:57;;;;;;;;;;;;;;;26.67;41.03;99958.50;7277917;19;153875;-62
2022/08/15 06:35:34;;;;;;;;;;;;;;;26.64;40.79;99953.59;7283575;19;153968;-62
2022/08/15 06:38:19;;;;;;;;;;;;;;;26.66;40.85;99954.06;7286572;19;152538;-62
2022/08/15 06:41:18;;;;;;;;;;;;;;;26.62;41.38;99956.00;7284703;19;155585;-62
2022/08/15 06:43:50;;;;;;;;;;;;;;;26.65;41.40;99944.72;7286561;19;153476;-62
2022/08/15 06:46:27;;;;;;;;;;;;;;;26.67;41.53;99945.16;7286720;19;151980;-62
2022/08/15 06:49:13;;;;;;;;;;;;;;;26.67;41.50;99953.66;7282919;19;152520;-62
2022/08/15 06:51:41;;;;;;;;;;;;;;;26.65;41.78;99950.38;7292438;19;151900;-62
2022/08/15 06:54:17;;;;;;;;;;;;;;;26.65;41.65;99950.38;7284456;19;154594;-62
2022/08/15 06:57:23;;;;;;;;;;;;;;;26.66;41.67;99954.88;7285148;19;152633;-62
2022/08/15 07:00:03;;;;;;;;;;;;;;;26.73;41.80;99952.16;7284057;19;153108;-62
2022/08/15 07:02:33;;;;;;;;;;;;;;;26.69;41.78;99947.63;7287909;19;152640;-62
2022/08/15 07:05:22;;;;;;;;;;;;;;;26.67;42.04;99950.00;7282100;19;153662;-62
2022/08/15 07:08:10;;;;;;;;;;;;;;;26.65;41.52;99953.22;7288195;19;152489;-62
2022/08/15 07:10:54;;;;;;;;;;;;;;;26.67;41.78;99958.50;7287451;19;153486;-62
2022/08/15 07:13:39;;;;;;;;;;;;;;;26.67;42.14;99956.50;7292653;19;153300;-62
2022/08/15 07:16:32;;;;;;;;;;;;;;;26.66;42.36;99962.56;7287423;19;154526;-62
2022/08/15 07:19:00;;;;;;;;;;;;;;;26.67;42.31;99961.34;7283939;19;153677;-62
2022/08/15 07:21:27;;;;;;;;;;;;;;;26.68;42.53;99960.97;7285267;19;152147;-62
2022/08/15 07:24:16;;;;;;;;;;;;;;;26.64;42.53;99964.94;7286070;19;156173;-62
2022/08/15 07:27:03;;;;;;;;;;;;;;;26.65;42.28;99960.91;7286219;19;153747;-62
2022/08/15 07:29:40;;;;;;;;;;;;;;;26.63;43.31;99964.09;7284239;19;153175;-62
2022/08/15 07:32:14;;;;;;;;;;;;;;;26.64;42.83;99965.75;7284889;19;152128;-62
2022/08/15 07:35:14;;;;;;;;;;;;;;;26.71;43.09;99965.88;7283597;19;154479;-62
2022/08/15 07:37:55;;;;;;;;;;;;;;;26.70;43.04;99964.25;7292634;19;152716;-62
2022/08/15 07:40:47;;;;;;;;;;;;;;;26.72;42.97;99955.38;7284292;19;152997;-62
2022/08/15 07:43:30;;;;;;;;;;;;;;;26.66;43.29;99963.38;7285854;19;153037;-62
2022/08/15 07:46:07;;;;;;;;;;;;;;;26.69;43.31;99959.78;7283571;19;153318;-62
2022/08/15 07:48:55;;;;;;;;;;;;;;;26.66;43.56;99960.53;7283221;19;153650;-62
2022/08/15 07:51:27;;;;;;;;;;;;;;;26.68;43.37;99958.13;7284191;19;152114;-62
2022/08/15 07:54:01;;;;;;;;;;;;;;;26.64;43.54;99962.09;7283088;19;153357;-62
2022/08/15 07:56:34;;;;;;;;;;;;;;;26.66;43.83;99952.03;7284066;19;153499;-62
2022/08/15 07:59:20;;;;;;;;;;;;;;;26.66;43.84;99945.56;7282519;19;152241;-62
2022/08/15 08:01:53;;;;;;;;;;;;;;;26.72;43.62;99961.84;7291714;19;153498;-62
2022/08/15 08:04:26;;;;;;;;;;;;;;;26.69;43.93;99961.78;7280840;19;151801;-62
2022/08/15 08:06:59;;;;;;;;;;;;;;;26.65;43.99;99956.06;7284737;19;153295;-62
2022/08/15 08:09:32;;;;;;;;;;;;;;;26.63;43.99;99964.09;7284284;19;153482;-62
2022/08/15 08:12:15;;;;;;;;;;;;;;;26.72;44.15;99961.84;7283631;19;152159;-62
2022/08/15 08:15:19;;;;;;;;;;;;;;;26.62;44.27;99979.47;7284471;19;152813;-62
2022/08/15 08:18:15;;;;;;;;;;;;;;;26.67;44.34;99981.16;7282164;19;157626;-62
2022/08/15 08:20:56;;;;;;;;;;;;;;;26.72;44.42;99986.53;7260503;19;154017;-62
2022/08/15 08:23:26;;;;;;;;;;;;;;;26.65;44.69;99981.56;7278886;19;153799;-62
2022/08/15 08:25:53;;;;;;;;;;;;;;;26.57;44.74;99985.44;7290842;19;154447;-62
2022/08/15 08:28:42;;;;;;;;;;;;;;;26.70;44.93;99974.78;7282282;19;152508;-62
2022/08/15 08:31:16;;;;;;;;;;;;;;;26.69;44.99;99976.78;7283584;19;153079;-62
2022/08/15 08:33:59;;;;;;;;;;;;;;;26.68;44.67;99972.31;7281728;19;152863;-62
2022/08/15 08:36:53;;;;;;;;;;;;;;;26.67;44.73;99979.16;7278939;19;153240;-62
2022/08/15 08:39:24;;;;;;;;;;;;;;;26.70;44.68;99980.44;7281707;19;152654;-62
2022/08/15 08:42:10;;;;;;;;;;;;;;;26.72;44.80;99975.22;7285145;19;152395;-62
2022/08/15 08:44:45;;;;;;;;;;;;;;;26.66;45.01;99979.56;7284089;19;152763;-62
2022/08/15 08:47:31;;;;;;;;;;;;;;;26.64;44.82;99979.91;7282174;19;152663;-62
2022/08/15 08:49:59;;;;;;;;;;;;;;;26.68;45.08;99985.66;7289346;19;152291;-62
2022/08/15 08:52:46;;;;;;;;;;;;;;;26.63;44.84;99988.78;7280908;19;156474;-62
2022/08/15 08:55:50;;;;;;;;;;;;;;;26.67;45.04;99981.16;7283847;19;153107;-62
2022/08/15 08:58:33;;;;;;;;;;;;;;;26.67;45.07;99982.00;7282187;19;152258;-62
2022/08/15 09:01:12;;;;;;;;;;;;;;;26.66;45.16;99974.72;7282629;19;154628;-62
2022/08/15 09:03:42;;;;;;;;;;;;;;;26.69;45.04;99975.97;7279115;19;152335;-62
2022/08/15 09:06:12;;;;;;;;;;;;;;;26.72;44.87;99972.38;7282023;19;152113;-62
2022/08/15 09:08:57;;;;;;;;;;;;;;;26.71;44.87;99979.25;7282173;19;153182;-62
2022/08/15 09:11:27;;;;;;;;;;;;;;;26.74;44.77;99972.84;7290924;19;152906;-62
2022/08/15 09:13:57;;;;;;;;;;;;;;;26.76;45.02;99970.44;7278369;19;153233;-62
2022/08/15 09:16:33;;;;;;;;;;;;;;;26.71;44.96;99965.88;7280850;19;154207;-62
2022/08/15 09:19:06;;;;;;;;;;;;;;;26.73;45.13;99974.00;7280937;19;152778;-62
2022/08/15 09:21:38;;;;;;;;;;;;;;;26.69;45.37;99976.78;7281330;19;153179;-62
2022/08/15 09:24:09;;;;;;;;;;;;;;;26.74;45.31;99979.31;7282995;19;152288;-62
2022/08/15 09:26:55;;;;;;;;;;;;;;;26.74;44.94;99978.50;7283048;19;155675;-62
2022/08/15 09:29:33;;;;;;;;;;;;;;;26.73;44.89;99980.50;7278604;19;155429;-62
2022/08/15 09:32:14;;;;;;;;;;;;;;;26.74;45.21;99987.81;7282244;19;152403;-62
2022/08/15 09:35:16;;;;;;;;;;;;;;;26.72;45.43;99993.03;7284639;19;154266;-62
2022/08/15 09:37:58;;;;;;;;;;;;;;;26.75;45.14;99986.63;7281627;19;152189;-62
2022/08/15 09:40:43;;;;;;;;;;;;;;;26.73;45.69;99989.00;7278575;19;154519;-62
2022/08/15 09:43:40;;;;;;;;;;;;;;;26.74;45.51;99999.16;7278097;19;156329;-62
2022/08/15 09:46:29;;;;;;;;;;;;;;;26.77;45.33;99994.75;7281882;19;153154;-62
2022/08/15 09:49:14;;;;;;;;;;;;;;;26.77;45.13;100001.25;7279124;19;152733;-62
2022/08/15 09:52:09;;;;;;;;;;;;;;;26.78;45.39;99996.38;7279543;19;153946;-62
2022/08/15 09:55:15;;;;;;;;;;;;;;;26.82;45.78;100009.44;7280749;19;151929;-62
2022/08/15 09:57:47;;;;;;;;;;;;;;;26.85;46.17;99999.34;7280626;19;153305;-62
2022/08/15 10:00:17;;;;;;;;;;;;;;;26.88;45.99;100002.31;7284940;19;153460;-62
2022/08/15 10:02:51;;;;;;;;;;;;;;;26.89;45.61;100000.31;7281193;19;153535;-62
2022/08/15 10:05:36;;;;;;;;;;;;;;;26.92;45.59;100005.22;7275384;19;154393;-62
2022/08/15 10:08:05;;;;;;;;;;;;;;;26.98;45.24;100000.88;7280983;19;153020;-62
2022/08/15 10:10:32;;;;;;;;;;;;;;;27.03;44.70;99996.94;7288029;19;152738;-62
2022/08/15 10:13:19;;;;;;;;;;;;;;;27.04;44.67;99999.38;7285823;19;152834;-62
2022/08/15 10:15:47;;;;;;;;;;;;;;;27.10;44.84;99997.88;7287972;19;152643;-62
2022/08/15 10:18:23;;;;;;;;;;;;;;;27.06;44.58;99991.31;7289010;19;152638;-62
2022/08/15 10:20:51;;;;;;;;;;;;;;;27.09;44.71;99996.22;7281178;19;153349;-62
2022/08/15 10:23:23;;;;;;;;;;;;;;;27.11;44.44;99993.84;7292094;19;152890;-62
2022/08/15 10:26:08;;;;;;;;;;;;;;;27.13;44.66;100004.78;7285723;19;155113;-62
2022/08/15 10:29:04;;;;;;;;;;;;;;;27.17;44.25;99991.50;7286937;19;152520;-62
2022/08/15 10:31:43;;;;;;;;;;;;;;;27.19;43.25;99994.78;7285993;19;154679;-62
2022/08/15 10:34:38;;;;;;;;;;;;;;;27.20;43.02;99993.59;7278801;19;154337;-62
2022/08/15 10:37:09;;;;;;;;;;;;;;;27.20;43.33;99994.44;7286342;19;152697;-62
2022/08/15 10:39:51;;;;;;;;;;;;;;;27.21;42.84;99983.91;7287115;19;152394;-62
2022/08/15 10:42:32;;;;;;;;;;;;;;;27.21;43.11;99983.91;7285388;19;153588;-62
2022/08/15 10:45:22;;;;;;;;;;;;;;;27.22;42.99;99983.50;7286539;19;153151;-62
2022/08/15 10:47:49;;;;;;;;;;;;;;;27.20;43.25;99985.91;7292049;19;152597;-62
2022/08/15 10:50:46;;;;;;;;;;;;;;;27.20;43.38;99988.75;7282427;19;152267;-62
2022/08/15 10:53:18;;;;;;;;;;;;;;;27.20;43.41;99994.44;7286227;19;153249;-62
2022/08/15 10:55:45;;;;;;;;;;;;;;;27.22;43.75;99991.19;7281193;19;153849;-62
2022/08/15 10:58:32;;;;;;;;;;;;;;;27.24;43.51;99988.81;7287384;19;154586;-62
2022/08/15 11:01:09;;;;;;;;;;;;;;;27.23;43.50;99987.16;7263119;19;156997;-62
2022/08/15 11:03:54;;;;;;;;;;;;;;;27.21;43.33;99983.91;7282518;19;154438;-62
2022/08/15 11:06:47;;;;;;;;;;;;;;;27.23;43.33;99981.50;7282796;19;155064;-62
2022/08/15 11:09:22;;;;;;;;;;;;;;;27.28;43.55;99986.84;7282715;19;153687;-63
2022/08/15 11:11:55;;;;;;;;;;;;;;;27.26;43.28;99986.41;7291349;19;152227;-62
2022/08/15 11:14:30;;;;;;;;;;;;;;;27.26;43.42;99975.88;7281057;19;153609;-62
2022/08/15 11:16:59;;;;;;;;;;;;;;;27.28;43.20;99970.66;7282010;19;154253;-62
2022/08/15 11:19:28;;;;;;;;;;;;;;;27.30;43.11;99967.44;7278269;19;152754;-62
2022/08/15 11:22:28;;;;;;;;;;;;;;;27.31;43.09;99974.75;7284635;19;156203;-62
2022/08/15 11:25:00;;;;;;;;;;;;;;;27.31;42.92;99974.75;7283547;19;152627;-62
2022/08/15 11:27:28;;;;;;;;;;;;;;;27.30;43.08;99973.13;7283108;19;152490;-62
2022/08/15 11:29:59;;;;;;;;;;;;;;;27.29;43.21;99980.00;7281518;19;152508;-62
2022/08/15 11:32:46;;;;;;;;;;;;;;;27.31;43.40;99983.25;7289019;19;159596;-62
2022/08/15 11:35:20;;;;;;;;;;;;;;;27.30;42.92;99976.75;7280264;19;153364;-62
2022/08/15 11:37:47;;;;;;;;;;;;;;;27.29;43.15;99980.81;7282837;19;153570;-62
2022/08/15 11:40:23;;;;;;;;;;;;;;;27.30;43.18;99973.13;7280913;19;152362;-62
2022/08/15 11:42:53;;;;;;;;;;;;;;;27.31;43.00;99977.56;7284010;19;154324;-62
2022/08/15 11:45:38;;;;;;;;;;;;;;;27.32;43.05;99982.06;7281808;19;153259;-62
2022/08/15 11:48:22;;;;;;;;;;;;;;;27.33;43.07;99983.69;7280971;19;152131;-62
2022/08/15 11:51:13;;;;;;;;;;;;;;;27.35;42.76;99990.63;7280924;19;153131;-62
2022/08/15 11:54:00;;;;;;;;;;;;;;;27.37;42.53;99993.09;7280955;19;153446;-62
2022/08/15 11:56:42;;;;;;;;;;;;;;;27.39;42.70;100002.84;7290445;19;153616;-62
2022/08/15 11:59:39;;;;;;;;;;;;;;;27.42;42.53;99989.94;7282100;19;154521;-62
2022/08/15 12:02:09;;;;;;;;;;;;;;;27.43;42.31;99995.25;7282732;19;152671;-62
2022/08/15 12:04:56;;;;;;;;;;;;;;;27.46;42.03;100001.34;7277032;19;156063;-62
2022/08/15 12:07:47;;;;;;;;;;;;;;;27.45;41.66;99994.84;7279679;19;155885;-62
2022/08/15 12:10:21;;;;;;;;;;;;;;;27.49;41.26;99995.75;7281166;19;152461;-62
2022/08/15 12:12:56;;;;;;;;;;;;;;;27.49;41.43;100004.28;7280046;19;154167;-62
2022/08/15 12:15:32;;;;;;;;;;;;;;;27.49;41.42;100006.28;7280373;19;153488;-62
2022/08/15 12:18:17;;;;;;;;;;;;;;;27.46;41.57;100007.03;7282800;19;151923;-62
2022/08/15 12:21:09;;;;;;;;;;;;;;;27.44;41.08;100007.41;7286385;19;155932;-62
2022/08/15 12:23:42;;;;;;;;;;;;;;;27.44;41.24;100010.22;7282507;19;152237;-62
2022/08/15 12:26:23;;;;;;;;;;;;;;;27.45;41.02;100000.53;7282596;19;152815;-62
2022/08/15 12:29:10;;;;;;;;;;;;;;;27.49;40.17;100004.28;7280548;19;156386;-62
2022/08/15 12:31:40;;;;;;;;;;;;;;;27.50;40.00;100008.75;7280836;19;153327;-62
2022/08/15 12:34:19;;;;;;;;;;;;;;;27.50;40.59;100013.59;7278567;19;153473;-62
2022/08/15 12:37:00;;;;;;;;;;;;;;;27.48;40.35;100005.50;7283490;19;152910;-62
2022/08/15 12:39:31;;;;;;;;;;;;;;;27.49;40.26;100009.94;7283320;19;152313;-62
2022/08/15 12:41:58;;;;;;;;;;;;;;;27.52;39.44;100011.22;7284689;19;152696;-62
2022/08/15 12:44:47;;;;;;;;;;;;;;;27.53;38.83;100016.50;7288967;19;153017;-62
2022/08/15 12:47:20;;;;;;;;;;;;;;;27.55;39.14;100016.97;7283157;19;153526;-62
2022/08/15 12:49:58;;;;;;;;;;;;;;;27.59;38.55;99999.97;7257374;19;154659;-62
2022/08/15 12:52:25;;;;;;;;;;;;;;;27.57;38.91;100000.38;7279416;19;152427;-62
2022/08/15 12:54:52;;;;;;;;;;;;;;;27.55;39.03;99997.09;7281987;19;153849;-62
2022/08/15 12:57:23;;;;;;;;;;;;;;;27.59;38.76;99997.97;7282023;19;153473;-62
2022/08/15 12:59:50;;;;;;;;;;;;;;;27.60;38.62;100001.63;7281858;19;152452;-62
2022/08/15 13:02:18;;;;;;;;;;;;;;;27.60;39.06;99996.78;7282036;19;152987;-62
2022/08/15 13:05:08;;;;;;;;;;;;;;;27.60;38.55;100001.63;7279152;19;155119;-62
2022/08/15 13:07:38;;;;;;;;;;;;;;;27.59;38.84;100008.50;7290930;19;151975;-62
2022/08/15 13:10:25;;;;;;;;;;;;;;;27.59;38.86;99995.13;7281415;19;156340;-62
2022/08/15 13:13:12;;;;;;;;;;;;;;;27.57;38.54;100002.41;7281839;19;153843;-62
2022/08/15 13:15:39;;;;;;;;;;;;;;;27.57;38.25;100003.22;7282184;19;152655;-62
2022/08/15 13:18:06;;;;;;;;;;;;;;;27.58;38.02;99987.81;7281840;19;153574;-62
2022/08/15 13:23:40;;;;;;;;;;;;;;;27.57;38.40;99997.53;7282280;19;152933;-62
2022/08/15 13:26:29;;;;;;;;;;;;;;;27.57;37.57;99997.53;7279543;19;156053;-62